Moody, Missouri
Current Conditions -  °F | °C
As of 11:53 AM on Saturday 25 Oct 2014 (Local Time) from KUNO Reporting Station
Clear Clear  
Wind Chill: 74°   Ceiling: Unl
Heat Index: 74°   Visibility: 10mi
Dew Point: 61°   Wind: 0mph
Humidity: 64%   Direction: NA
Pressure: 30.09"   Gusts: NA
Location:  36.53°N, 91.99°W
Report Text: KUNO 251653Z AUTO 00000KT 10SM CLR 23/16 A3009 RMK AO2 SLP180 T02330161
Loading
Personal Weather Stations






























Interactive Weather Map New forecast layout! Learn more

10-Day Weather Forecast

Advertisements
Track Severe Weather on mobile